sensor_id;sensor_type;location;lat;lon;timestamp;P1;durP1;ratioP1;P2;durP2;ratioP2
15285;SDS011;7744;52.172;10.668;2023-07-13T00:01:27;3.83;;;2.70;;
15285;SDS011;7744;52.172;10.668;2023-07-13T00:03:53;3.42;;;2.63;;
15285;SDS011;7744;52.172;10.668;2023-07-13T00:06:19;3.75;;;2.80;;
15285;SDS011;7744;52.172;10.668;2023-07-13T00:08:46;4.88;;;2.72;;
15285;SDS011;7744;52.172;10.668;2023-07-13T00:11:12;3.63;;;2.60;;
15285;SDS011;7744;52.172;10.668;2023-07-13T00:13:39;2.47;;;2.28;;
15285;SDS011;7744;52.172;10.668;2023-07-13T00:16:06;3.42;;;2.40;;
15285;SDS011;7744;52.172;10.668;2023-07-13T00:18:32;4.25;;;2.50;;
15285;SDS011;7744;52.172;10.668;2023-07-13T00:20:57;2.92;;;2.03;;
15285;SDS011;7744;52.172;10.668;2023-07-13T00:23:30;4.90;;;2.58;;
15285;SDS011;7744;52.172;10.668;2023-07-13T00:25:56;3.03;;;2.25;;
15285;SDS011;7744;52.172;10.668;2023-07-13T00:28:22;2.83;;;2.55;;
15285;SDS011;7744;52.172;10.668;2023-07-13T00:30:48;2.40;;;2.20;;
15285;SDS011;7744;52.172;10.668;2023-07-13T00:33:14;2.88;;;2.30;;
15285;SDS011;7744;52.172;10.668;2023-07-13T00:35:40;3.58;;;2.22;;
15285;SDS011;7744;52.172;10.668;2023-07-13T00:38:08;4.72;;;2.53;;
15285;SDS011;7744;52.172;10.668;2023-07-13T00:40:34;3.20;;;2.65;;
15285;SDS011;7744;52.172;10.668;2023-07-13T00:43:00;2.78;;;2.30;;
15285;SDS011;7744;52.172;10.668;2023-07-13T00:47:52;3.13;;;2.28;;
15285;SDS011;7744;52.172;10.668;2023-07-13T00:50:18;2.92;;;2.10;;
15285;SDS011;7744;52.172;10.668;2023-07-13T00:52:46;2.30;;;2.10;;
15285;SDS011;7744;52.172;10.668;2023-07-13T00:55:15;4.15;;;2.42;;
15285;SDS011;7744;52.172;10.668;2023-07-13T00:57:41;3.25;;;2.13;;
15285;SDS011;7744;52.172;10.668;2023-07-13T01:00:08;4.32;;;2.30;;
15285;SDS011;7744;52.172;10.668;2023-07-13T01:02:38;3.00;;;2.30;;
15285;SDS011;7744;52.172;10.668;2023-07-13T01:05:15;2.50;;;2.30;;
15285;SDS011;7744;52.172;10.668;2023-07-13T01:07:43;2.78;;;2.55;;
15285;SDS011;7744;52.172;10.668;2023-07-13T01:10:09;3.10;;;2.20;;
15285;SDS011;7744;52.172;10.668;2023-07-13T01:12:35;2.60;;;2.10;;
15285;SDS011;7744;52.172;10.668;2023-07-13T01:15:02;2.97;;;2.33;;
15285;SDS011;7744;52.172;10.668;2023-07-13T01:17:28;4.80;;;2.50;;
15285;SDS011;7744;52.172;10.668;2023-07-13T01:19:54;2.53;;;2.15;;
15285;SDS011;7744;52.172;10.668;2023-07-13T01:22:20;3.33;;;2.40;;
15285;SDS011;7744;52.172;10.668;2023-07-13T01:24:51;2.85;;;2.47;;
15285;SDS011;7744;52.172;10.668;2023-07-13T01:27:20;3.13;;;2.55;;
15285;SDS011;7744;52.172;10.668;2023-07-13T01:29:50;2.95;;;2.30;;
15285;SDS011;7744;52.172;10.668;2023-07-13T01:32:18;5.10;;;2.78;;
15285;SDS011;7744;52.172;10.668;2023-07-13T01:34:49;2.90;;;2.42;;
15285;SDS011;7744;52.172;10.668;2023-07-13T01:37:16;5.25;;;2.70;;
15285;SDS011;7744;52.172;10.668;2023-07-13T01:39:42;3.55;;;2.50;;
15285;SDS011;7744;52.172;10.668;2023-07-13T01:42:08;3.75;;;2.58;;
15285;SDS011;7744;52.172;10.668;2023-07-13T01:44:34;4.43;;;2.47;;
15285;SDS011;7744;52.172;10.668;2023-07-13T01:47:00;3.88;;;2.50;;
15285;SDS011;7744;52.172;10.668;2023-07-13T01:49:26;3.63;;;2.70;;
15285;SDS011;7744;52.172;10.668;2023-07-13T01:51:52;3.00;;;2.70;;
15285;SDS011;7744;52.172;10.668;2023-07-13T01:54:18;4.43;;;2.95;;
15285;SDS011;7744;52.172;10.668;2023-07-13T01:56:44;3.20;;;2.63;;
15285;SDS011;7744;52.172;10.668;2023-07-13T01:59:10;4.43;;;2.92;;
15285;SDS011;7744;52.172;10.668;2023-07-13T02:01:36;3.60;;;2.70;;
15285;SDS011;7744;52.172;10.668;2023-07-13T02:04:02;4.28;;;2.60;;
15285;SDS011;7744;52.172;10.668;2023-07-13T02:06:28;4.47;;;2.50;;
15285;SDS011;7744;52.172;10.668;2023-07-13T02:08:54;3.40;;;2.80;;
15285;SDS011;7744;52.172;10.668;2023-07-13T02:11:20;4.38;;;2.80;;
15285;SDS011;7744;52.172;10.668;2023-07-13T02:13:46;4.25;;;2.92;;
15285;SDS011;7744;52.172;10.668;2023-07-13T02:16:12;3.08;;;2.50;;
15285;SDS011;7744;52.172;10.668;2023-07-13T02:18:38;3.42;;;2.92;;
15285;SDS011;7744;52.172;10.668;2023-07-13T02:21:04;3.92;;;2.90;;
15285;SDS011;7744;52.172;10.668;2023-07-13T02:23:30;5.00;;;2.92;;
15285;SDS011;7744;52.172;10.668;2023-07-13T02:25:56;4.28;;;2.70;;
15285;SDS011;7744;52.172;10.668;2023-07-13T02:28:22;5.35;;;3.00;;
15285;SDS011;7744;52.172;10.668;2023-07-13T02:30:48;3.67;;;2.50;;
15285;SDS011;7744;52.172;10.668;2023-07-13T02:33:14;4.35;;;2.67;;
15285;SDS011;7744;52.172;10.668;2023-07-13T02:35:40;3.08;;;2.78;;
15285;SDS011;7744;52.172;10.668;2023-07-13T02:38:06;5.03;;;3.28;;
15285;SDS011;7744;52.172;10.668;2023-07-13T02:40:33;2.88;;;2.50;;
15285;SDS011;7744;52.172;10.668;2023-07-13T02:43:00;5.53;;;3.30;;
15285;SDS011;7744;52.172;10.668;2023-07-13T02:45:26;4.53;;;3.40;;
15285;SDS011;7744;52.172;10.668;2023-07-13T02:47:52;5.13;;;3.05;;
15285;SDS011;7744;52.172;10.668;2023-07-13T02:50:18;3.67;;;2.90;;
15285;SDS011;7744;52.172;10.668;2023-07-13T02:52:44;3.28;;;2.65;;
15285;SDS011;7744;52.172;10.668;2023-07-13T02:55:10;3.92;;;3.05;;
15285;SDS011;7744;52.172;10.668;2023-07-13T02:57:36;3.40;;;3.10;;
15285;SDS011;7744;52.172;10.668;2023-07-13T03:00:03;3.92;;;3.10;;
15285;SDS011;7744;52.172;10.668;2023-07-13T03:02:32;4.07;;;3.22;;
15285;SDS011;7744;52.172;10.668;2023-07-13T03:04:58;5.43;;;3.55;;
15285;SDS011;7744;52.172;10.668;2023-07-13T03:07:24;4.03;;;2.78;;
15285;SDS011;7744;52.172;10.668;2023-07-13T03:09:55;5.93;;;3.80;;
15285;SDS011;7744;52.172;10.668;2023-07-13T03:12:21;5.03;;;3.10;;
15285;SDS011;7744;52.172;10.668;2023-07-13T03:14:47;5.47;;;3.40;;
15285;SDS011;7744;52.172;10.668;2023-07-13T03:17:13;5.20;;;3.50;;
15285;SDS011;7744;52.172;10.668;2023-07-13T03:19:39;4.28;;;2.88;;
15285;SDS011;7744;52.172;10.668;2023-07-13T03:22:05;4.72;;;3.10;;
15285;SDS011;7744;52.172;10.668;2023-07-13T03:24:34;3.25;;;3.00;;
15285;SDS011;7744;52.172;10.668;2023-07-13T03:27:03;3.95;;;3.38;;
15285;SDS011;7744;52.172;10.668;2023-07-13T03:29:29;5.32;;;3.42;;
15285;SDS011;7744;52.172;10.668;2023-07-13T03:31:55;4.93;;;3.42;;
15285;SDS011;7744;52.172;10.668;2023-07-13T03:34:21;5.53;;;3.60;;
15285;SDS011;7744;52.172;10.668;2023-07-13T03:36:47;3.67;;;2.53;;
15285;SDS011;7744;52.172;10.668;2023-07-13T03:39:12;3.58;;;3.15;;
15285;SDS011;7744;52.172;10.668;2023-07-13T03:41:38;3.88;;;3.47;;
15285;SDS011;7744;52.172;10.668;2023-07-13T03:44:04;4.97;;;3.58;;
15285;SDS011;7744;52.172;10.668;2023-07-13T03:46:30;5.30;;;3.40;;
15285;SDS011;7744;52.172;10.668;2023-07-13T03:48:57;5.35;;;2.80;;
15285;SDS011;7744;52.172;10.668;2023-07-13T03:51:23;4.55;;;2.97;;
15285;SDS011;7744;52.172;10.668;2023-07-13T03:53:49;3.35;;;3.05;;
15285;SDS011;7744;52.172;10.668;2023-07-13T03:56:16;3.70;;;2.85;;
15285;SDS011;7744;52.172;10.668;2023-07-13T03:58:43;4.95;;;3.20;;
15285;SDS011;7744;52.172;10.668;2023-07-13T04:01:10;3.80;;;3.30;;
15285;SDS011;7744;52.172;10.668;2023-07-13T04:03:37;3.28;;;2.75;;
15285;SDS011;7744;52.172;10.668;2023-07-13T04:06:04;7.28;;;3.42;;
15285;SDS011;7744;52.172;10.668;2023-07-13T04:08:34;3.72;;;3.17;;
15285;SDS011;7744;52.172;10.668;2023-07-13T04:11:02;4.03;;;2.90;;
15285;SDS011;7744;52.172;10.668;2023-07-13T04:13:29;3.78;;;3.00;;
15285;SDS011;7744;52.172;10.668;2023-07-13T04:15:56;3.15;;;2.85;;
15285;SDS011;7744;52.172;10.668;2023-07-13T04:18:22;3.53;;;2.85;;
15285;SDS011;7744;52.172;10.668;2023-07-13T04:20:48;4.50;;;2.92;;
15285;SDS011;7744;52.172;10.668;2023-07-13T04:23:18;4.35;;;3.10;;
15285;SDS011;7744;52.172;10.668;2023-07-13T04:25:45;3.85;;;2.95;;
15285;SDS011;7744;52.172;10.668;2023-07-13T04:28:12;4.30;;;3.25;;
15285;SDS011;7744;52.172;10.668;2023-07-13T04:30:37;4.07;;;2.85;;
15285;SDS011;7744;52.172;10.668;2023-07-13T04:33:03;3.25;;;2.95;;
15285;SDS011;7744;52.172;10.668;2023-07-13T04:35:30;3.85;;;3.05;;
15285;SDS011;7744;52.172;10.668;2023-07-13T04:37:56;3.85;;;3.00;;
15285;SDS011;7744;52.172;10.668;2023-07-13T04:40:22;3.00;;;2.70;;
15285;SDS011;7744;52.172;10.668;2023-07-13T04:42:48;3.65;;;2.88;;
15285;SDS011;7744;52.172;10.668;2023-07-13T04:45:14;5.25;;;3.42;;
15285;SDS011;7744;52.172;10.668;2023-07-13T04:47:40;3.20;;;2.50;;
15285;SDS011;7744;52.172;10.668;2023-07-13T04:50:06;2.85;;;2.10;;
15285;SDS011;7744;52.172;10.668;2023-07-13T04:52:33;3.85;;;2.58;;
15285;SDS011;7744;52.172;10.668;2023-07-13T04:54:59;3.97;;;2.30;;
15285;SDS011;7744;52.172;10.668;2023-07-13T04:57:26;3.75;;;2.67;;
15285;SDS011;7744;52.172;10.668;2023-07-13T04:59:52;3.47;;;2.30;;
15285;SDS011;7744;52.172;10.668;2023-07-13T05:02:20;4.05;;;2.25;;
15285;SDS011;7744;52.172;10.668;2023-07-13T05:04:46;2.22;;;1.95;;
15285;SDS011;7744;52.172;10.668;2023-07-13T05:07:13;2.75;;;1.92;;
15285;SDS011;7744;52.172;10.668;2023-07-13T05:09:39;2.38;;;1.80;;
15285;SDS011;7744;52.172;10.668;2023-07-13T05:12:05;2.80;;;1.70;;
15285;SDS011;7744;52.172;10.668;2023-07-13T05:14:32;2.90;;;1.70;;
15285;SDS011;7744;52.172;10.668;2023-07-13T05:16:58;3.75;;;1.60;;
15285;SDS011;7744;52.172;10.668;2023-07-13T05:19:24;3.72;;;1.50;;
15285;SDS011;7744;52.172;10.668;2023-07-13T05:21:50;13.63;;;2.03;;
15285;SDS011;7744;52.172;10.668;2023-07-13T05:24:16;4.57;;;1.85;;
15285;SDS011;7744;52.172;10.668;2023-07-13T05:26:42;1.88;;;1.38;;
15285;SDS011;7744;52.172;10.668;2023-07-13T05:29:07;3.00;;;1.50;;
15285;SDS011;7744;52.172;10.668;2023-07-13T05:31:33;3.30;;;1.48;;
15285;SDS011;7744;52.172;10.668;2023-07-13T05:33:59;2.70;;;1.42;;
15285;SDS011;7744;52.172;10.668;2023-07-13T05:36:25;3.40;;;1.58;;
15285;SDS011;7744;52.172;10.668;2023-07-13T05:38:51;4.43;;;1.40;;
15285;SDS011;7744;52.172;10.668;2023-07-13T05:41:17;4.35;;;1.52;;
15285;SDS011;7744;52.172;10.668;2023-07-13T05:43:43;2.05;;;1.30;;
15285;SDS011;7744;52.172;10.668;2023-07-13T05:46:09;4.65;;;1.63;;
15285;SDS011;7744;52.172;10.668;2023-07-13T05:48:34;3.42;;;1.30;;
15285;SDS011;7744;52.172;10.668;2023-07-13T05:51:00;4.53;;;1.65;;
15285;SDS011;7744;52.172;10.668;2023-07-13T05:53:26;3.33;;;1.35;;
15285;SDS011;7744;52.172;10.668;2023-07-13T05:55:53;3.10;;;1.40;;
15285;SDS011;7744;52.172;10.668;2023-07-13T05:58:19;4.25;;;1.80;;
15285;SDS011;7744;52.172;10.668;2023-07-13T06:00:46;2.55;;;1.20;;
15285;SDS011;7744;52.172;10.668;2023-07-13T06:03:12;1.83;;;1.23;;
15285;SDS011;7744;52.172;10.668;2023-07-13T06:05:38;3.47;;;1.42;;
15285;SDS011;7744;52.172;10.668;2023-07-13T06:08:04;2.85;;;1.40;;
15285;SDS011;7744;52.172;10.668;2023-07-13T06:10:33;3.75;;;1.52;;
15285;SDS011;7744;52.172;10.668;2023-07-13T06:12:59;3.20;;;1.58;;
15285;SDS011;7744;52.172;10.668;2023-07-13T06:15:25;3.65;;;1.50;;
15285;SDS011;7744;52.172;10.668;2023-07-13T06:17:51;3.45;;;1.25;;
15285;SDS011;7744;52.172;10.668;2023-07-13T06:20:17;5.30;;;2.15;;
15285;SDS011;7744;52.172;10.668;2023-07-13T06:22:43;2.92;;;1.30;;
15285;SDS011;7744;52.172;10.668;2023-07-13T06:25:09;5.32;;;1.55;;
15285;SDS011;7744;52.172;10.668;2023-07-13T06:27:34;5.55;;;1.77;;
15285;SDS011;7744;52.172;10.668;2023-07-13T06:30:00;4.50;;;1.70;;
15285;SDS011;7744;52.172;10.668;2023-07-13T06:32:26;3.42;;;1.52;;
15285;SDS011;7744;52.172;10.668;2023-07-13T06:34:52;3.00;;;1.45;;
15285;SDS011;7744;52.172;10.668;2023-07-13T06:37:18;4.78;;;1.83;;
15285;SDS011;7744;52.172;10.668;2023-07-13T06:39:44;4.40;;;1.80;;
15285;SDS011;7744;52.172;10.668;2023-07-13T06:42:10;4.43;;;1.90;;
15285;SDS011;7744;52.172;10.668;2023-07-13T06:44:36;5.07;;;1.88;;
15285;SDS011;7744;52.172;10.668;2023-07-13T06:47:01;3.78;;;1.70;;
15285;SDS011;7744;52.172;10.668;2023-07-13T06:49:27;4.85;;;1.92;;
15285;SDS011;7744;52.172;10.668;2023-07-13T06:51:53;5.85;;;2.05;;
15285;SDS011;7744;52.172;10.668;2023-07-13T06:54:19;3.50;;;1.52;;
15285;SDS011;7744;52.172;10.668;2023-07-13T06:56:45;4.63;;;1.60;;
15285;SDS011;7744;52.172;10.668;2023-07-13T06:59:11;7.70;;;1.90;;
15285;SDS011;7744;52.172;10.668;2023-07-13T07:01:37;5.32;;;1.88;;
15285;SDS011;7744;52.172;10.668;2023-07-13T07:04:03;3.35;;;1.40;;
15285;SDS011;7744;52.172;10.668;2023-07-13T07:06:28;5.20;;;1.90;;
15285;SDS011;7744;52.172;10.668;2023-07-13T07:08:54;4.90;;;1.63;;
15285;SDS011;7744;52.172;10.668;2023-07-13T07:11:22;3.30;;;1.63;;
15285;SDS011;7744;52.172;10.668;2023-07-13T07:13:49;6.32;;;1.55;;
15285;SDS011;7744;52.172;10.668;2023-07-13T07:16:16;7.43;;;2.03;;
15285;SDS011;7744;52.172;10.668;2023-07-13T07:18:42;4.93;;;2.10;;
15285;SDS011;7744;52.172;10.668;2023-07-13T07:21:08;8.77;;;2.42;;
15285;SDS011;7744;52.172;10.668;2023-07-13T07:23:34;4.70;;;2.00;;
15285;SDS011;7744;52.172;10.668;2023-07-13T07:26:00;4.35;;;1.77;;
15285;SDS011;7744;52.172;10.668;2023-07-13T07:28:26;7.03;;;1.90;;
15285;SDS011;7744;52.172;10.668;2023-07-13T07:30:54;4.60;;;2.05;;
15285;SDS011;7744;52.172;10.668;2023-07-13T07:33:21;5.35;;;1.77;;
15285;SDS011;7744;52.172;10.668;2023-07-13T07:35:47;4.40;;;1.98;;
15285;SDS011;7744;52.172;10.668;2023-07-13T07:38:13;4.65;;;2.10;;
15285;SDS011;7744;52.172;10.668;2023-07-13T07:40:40;4.63;;;2.78;;
15285;SDS011;7744;52.172;10.668;2023-07-13T07:43:07;4.25;;;2.42;;
15285;SDS011;7744;52.172;10.668;2023-07-13T07:45:34;4.43;;;2.47;;
15285;SDS011;7744;52.172;10.668;2023-07-13T07:48:00;7.53;;;2.65;;
15285;SDS011;7744;52.172;10.668;2023-07-13T07:50:26;7.10;;;3.00;;
15285;SDS011;7744;52.172;10.668;2023-07-13T07:52:52;4.80;;;2.83;;
15285;SDS011;7744;52.172;10.668;2023-07-13T07:55:18;6.10;;;2.70;;
15285;SDS011;7744;52.172;10.668;2023-07-13T07:57:45;4.80;;;2.60;;
15285;SDS011;7744;52.172;10.668;2023-07-13T08:00:11;4.70;;;2.20;;
15285;SDS011;7744;52.172;10.668;2023-07-13T08:02:37;3.60;;;2.10;;
15285;SDS011;7744;52.172;10.668;2023-07-13T08:05:05;6.55;;;2.10;;
15285;SDS011;7744;52.172;10.668;2023-07-13T08:07:31;2.70;;;1.80;;
15285;SDS011;7744;52.172;10.668;2023-07-13T08:09:57;3.08;;;1.70;;
15285;SDS011;7744;52.172;10.668;2023-07-13T08:12:23;5.30;;;2.17;;
15285;SDS011;7744;52.172;10.668;2023-07-13T08:14:49;4.80;;;1.80;;
15285;SDS011;7744;52.172;10.668;2023-07-13T08:17:19;6.78;;;1.95;;
15285;SDS011;7744;52.172;10.668;2023-07-13T08:19:45;5.55;;;1.95;;
15285;SDS011;7744;52.172;10.668;2023-07-13T08:22:11;4.18;;;1.45;;
15285;SDS011;7744;52.172;10.668;2023-07-13T08:29:45;4.47;;;1.30;;
15285;SDS011;7744;52.172;10.668;2023-07-13T08:32:13;2.95;;;1.40;;
15285;SDS011;7744;52.172;10.668;2023-07-13T08:34:39;2.75;;;1.20;;
15285;SDS011;7744;52.172;10.668;2023-07-13T08:37:05;1.92;;;1.02;;
15285;SDS011;7744;52.172;10.668;2023-07-13T08:39:32;2.22;;;1.02;;
15285;SDS011;7744;52.172;10.668;2023-07-13T08:42:05;3.58;;;1.15;;
15285;SDS011;7744;52.172;10.668;2023-07-13T08:45:08;5.10;;;1.30;;
15285;SDS011;7744;52.172;10.668;2023-07-13T08:50:24;5.35;;;1.42;;
15285;SDS011;7744;52.172;10.668;2023-07-13T08:52:55;3.10;;;1.05;;
15285;SDS011;7744;52.172;10.668;2023-07-13T08:55:27;3.88;;;1.00;;
15285;SDS011;7744;52.172;10.668;2023-07-13T08:57:59;3.28;;;1.20;;
15285;SDS011;7744;52.172;10.668;2023-07-13T09:00:43;2.63;;;1.00;;
15285;SDS011;7744;52.172;10.668;2023-07-13T09:03:13;2.90;;;1.00;;
15285;SDS011;7744;52.172;10.668;2023-07-13T09:05:45;2.55;;;1.40;;
15285;SDS011;7744;52.172;10.668;2023-07-13T09:11:15;2.42;;;1.10;;
15285;SDS011;7744;52.172;10.668;2023-07-13T09:15:02;3.45;;;1.35;;
15285;SDS011;7744;52.172;10.668;2023-07-13T09:17:35;2.03;;;1.02;;
15285;SDS011;7744;52.172;10.668;2023-07-13T09:20:44;4.70;;;1.20;;
15285;SDS011;7744;52.172;10.668;2023-07-13T09:23:16;3.75;;;0.95;;
15285;SDS011;7744;52.172;10.668;2023-07-13T09:25:45;2.15;;;1.20;;
15285;SDS011;7744;52.172;10.668;2023-07-13T09:28:26;2.83;;;1.00;;
15285;SDS011;7744;52.172;10.668;2023-07-13T09:30:58;3.40;;;1.10;;
15285;SDS011;7744;52.172;10.668;2023-07-13T09:33:40;2.88;;;1.08;;
15285;SDS011;7744;52.172;10.668;2023-07-13T09:39:00;2.25;;;0.95;;
15285;SDS011;7744;52.172;10.668;2023-07-13T09:41:36;2.60;;;1.00;;
15285;SDS011;7744;52.172;10.668;2023-07-13T09:44:50;3.25;;;1.10;;
15285;SDS011;7744;52.172;10.668;2023-07-13T09:47:31;3.40;;;1.15;;
15285;SDS011;7744;52.172;10.668;2023-07-13T09:50:04;4.63;;;1.48;;
15285;SDS011;7744;52.172;10.668;2023-07-13T09:52:40;4.22;;;0.93;;
15285;SDS011;7744;52.172;10.668;2023-07-13T09:55:22;1.65;;;0.88;;
15285;SDS011;7744;52.172;10.668;2023-07-13T09:57:54;1.58;;;1.00;;
15285;SDS011;7744;52.172;10.668;2023-07-13T10:00:27;3.08;;;1.10;;
15285;SDS011;7744;52.172;10.668;2023-07-13T10:03:00;3.55;;;1.10;;
15285;SDS011;7744;52.172;10.668;2023-07-13T10:05:39;2.28;;;0.90;;
15285;SDS011;7744;52.172;10.668;2023-07-13T10:08:14;2.10;;;1.17;;
15285;SDS011;7744;52.172;10.668;2023-07-13T10:10:59;3.40;;;1.02;;
15285;SDS011;7744;52.172;10.668;2023-07-13T10:13:34;1.90;;;0.90;;
15285;SDS011;7744;52.172;10.668;2023-07-13T10:31:51;3.25;;;1.30;;
15285;SDS011;7744;52.172;10.668;2023-07-13T10:49:54;4.80;;;1.40;;
15285;SDS011;7744;52.172;10.668;2023-07-13T10:56:23;4.72;;;1.52;;
15285;SDS011;7744;52.172;10.668;2023-07-13T11:05:41;2.47;;;1.10;;
15285;SDS011;7744;52.172;10.668;2023-07-13T11:09:17;2.58;;;1.20;;
15285;SDS011;7744;52.172;10.668;2023-07-13T11:11:36;2.70;;;1.17;;
15285;SDS011;7744;52.172;10.668;2023-07-13T11:20:41;7.10;;;1.55;;
15285;SDS011;7744;52.172;10.668;2023-07-13T11:42:29;2.05;;;1.10;;
15285;SDS011;7744;52.172;10.668;2023-07-13T11:49:15;2.53;;;1.30;;
15285;SDS011;7744;52.172;10.668;2023-07-13T12:20:00;4.30;;;1.27;;
15285;SDS011;7744;52.172;10.668;2023-07-13T12:29:32;2.65;;;1.60;;
15285;SDS011;7744;52.172;10.668;2023-07-13T12:32:02;2.55;;;1.42;;
15285;SDS011;7744;52.172;10.668;2023-07-13T12:34:29;2.65;;;1.15;;
15285;SDS011;7744;52.172;10.668;2023-07-13T12:36:55;3.65;;;1.27;;
15285;SDS011;7744;52.172;10.668;2023-07-13T12:39:45;2.28;;;1.33;;
15285;SDS011;7744;52.172;10.668;2023-07-13T12:42:31;2.03;;;1.20;;
15285;SDS011;7744;52.172;10.668;2023-07-13T12:48:14;2.38;;;1.30;;
15285;SDS011;7744;52.172;10.668;2023-07-13T12:59:18;3.60;;;1.45;;
15285;SDS011;7744;52.172;10.668;2023-07-13T13:01:49;2.97;;;1.50;;
15285;SDS011;7744;52.172;10.668;2023-07-13T13:04:16;1.52;;;1.02;;
15285;SDS011;7744;52.172;10.668;2023-07-13T13:06:46;1.83;;;1.08;;
15285;SDS011;7744;52.172;10.668;2023-07-13T13:09:13;1.80;;;1.23;;
15285;SDS011;7744;52.172;10.668;2023-07-13T13:11:40;1.70;;;1.38;;
15285;SDS011;7744;52.172;10.668;2023-07-13T13:14:06;2.05;;;1.33;;
15285;SDS011;7744;52.172;10.668;2023-07-13T13:16:44;2.22;;;1.55;;
15285;SDS011;7744;52.172;10.668;2023-07-13T13:19:13;3.50;;;1.60;;
15285;SDS011;7744;52.172;10.668;2023-07-13T13:21:42;2.83;;;1.42;;
15285;SDS011;7744;52.172;10.668;2023-07-13T13:24:13;3.90;;;1.40;;
15285;SDS011;7744;52.172;10.668;2023-07-13T13:26:52;1.90;;;1.60;;
15285;SDS011;7744;52.172;10.668;2023-07-13T13:29:19;3.42;;;1.45;;
15285;SDS011;7744;52.172;10.668;2023-07-13T13:31:49;2.20;;;1.25;;
15285;SDS011;7744;52.172;10.668;2023-07-13T13:34:16;2.10;;;1.20;;
15285;SDS011;7744;52.172;10.668;2023-07-13T13:36:43;3.70;;;1.42;;
15285;SDS011;7744;52.172;10.668;2023-07-13T13:39:18;2.67;;;1.55;;
15285;SDS011;7744;52.172;10.668;2023-07-13T13:41:45;3.13;;;1.50;;
15285;SDS011;7744;52.172;10.668;2023-07-13T13:44:12;7.35;;;1.60;;
15285;SDS011;7744;52.172;10.668;2023-07-13T13:46:39;3.10;;;0.90;;
15285;SDS011;7744;52.172;10.668;2023-07-13T13:49:05;2.50;;;1.42;;
15285;SDS011;7744;52.172;10.668;2023-07-13T13:51:31;2.60;;;1.20;;
15285;SDS011;7744;52.172;10.668;2023-07-13T13:53:57;1.45;;;1.02;;
15285;SDS011;7744;52.172;10.668;2023-07-13T13:56:24;2.63;;;1.23;;
15285;SDS011;7744;52.172;10.668;2023-07-13T13:58:51;1.48;;;1.35;;
15285;SDS011;7744;52.172;10.668;2023-07-13T14:01:18;2.58;;;1.42;;
15285;SDS011;7744;52.172;10.668;2023-07-13T14:03:46;2.70;;;1.40;;
15285;SDS011;7744;52.172;10.668;2023-07-13T14:06:14;2.92;;;1.40;;
15285;SDS011;7744;52.172;10.668;2023-07-13T14:08:40;2.15;;;1.40;;
15285;SDS011;7744;52.172;10.668;2023-07-13T14:11:07;2.10;;;1.17;;
15285;SDS011;7744;52.172;10.668;2023-07-13T14:13:40;3.28;;;1.33;;
15285;SDS011;7744;52.172;10.668;2023-07-13T14:16:15;2.58;;;1.40;;
15285;SDS011;7744;52.172;10.668;2023-07-13T14:18:46;2.88;;;1.50;;
15285;SDS011;7744;52.172;10.668;2023-07-13T14:21:13;4.07;;;1.70;;
15285;SDS011;7744;52.172;10.668;2023-07-13T14:23:44;3.22;;;1.40;;
15285;SDS011;7744;52.172;10.668;2023-07-13T14:26:12;2.80;;;1.73;;
15285;SDS011;7744;52.172;10.668;2023-07-13T14:28:44;3.17;;;1.50;;
15285;SDS011;7744;52.172;10.668;2023-07-13T14:31:12;2.15;;;1.48;;
15285;SDS011;7744;52.172;10.668;2023-07-13T14:33:39;1.73;;;1.58;;
15285;SDS011;7744;52.172;10.668;2023-07-13T14:38:57;4.13;;;1.80;;
15285;SDS011;7744;52.172;10.668;2023-07-13T14:41:24;2.80;;;1.30;;
15285;SDS011;7744;52.172;10.668;2023-07-13T14:43:50;2.58;;;1.50;;
15285;SDS011;7744;52.172;10.668;2023-07-13T14:46:37;2.10;;;1.45;;
15285;SDS011;7744;52.172;10.668;2023-07-13T14:49:24;3.15;;;1.50;;
15285;SDS011;7744;52.172;10.668;2023-07-13T14:51:58;4.22;;;1.75;;
15285;SDS011;7744;52.172;10.668;2023-07-13T14:54:35;4.25;;;1.50;;
15285;SDS011;7744;52.172;10.668;2023-07-13T14:57:07;3.38;;;1.60;;
15285;SDS011;7744;52.172;10.668;2023-07-13T14:59:41;5.28;;;1.73;;
15285;SDS011;7744;52.172;10.668;2023-07-13T15:04:51;3.05;;;1.95;;
15285;SDS011;7744;52.172;10.668;2023-07-13T15:07:17;2.50;;;1.60;;
15285;SDS011;7744;52.172;10.668;2023-07-13T15:09:45;5.43;;;2.00;;
15285;SDS011;7744;52.172;10.668;2023-07-13T15:12:12;2.60;;;1.52;;
15285;SDS011;7744;52.172;10.668;2023-07-13T15:14:38;3.17;;;1.70;;
15285;SDS011;7744;52.172;10.668;2023-07-13T15:17:04;2.20;;;1.58;;
15285;SDS011;7744;52.172;10.668;2023-07-13T15:19:43;2.50;;;1.50;;
15285;SDS011;7744;52.172;10.668;2023-07-13T15:22:08;2.20;;;1.40;;
15285;SDS011;7744;52.172;10.668;2023-07-13T15:24:35;1.88;;;1.40;;
15285;SDS011;7744;52.172;10.668;2023-07-13T15:27:02;2.20;;;1.33;;
15285;SDS011;7744;52.172;10.668;2023-07-13T15:29:28;2.50;;;1.63;;
15285;SDS011;7744;52.172;10.668;2023-07-13T15:31:54;2.58;;;1.52;;
15285;SDS011;7744;52.172;10.668;2023-07-13T15:34:20;4.00;;;2.05;;
15285;SDS011;7744;52.172;10.668;2023-07-13T15:36:51;6.22;;;2.22;;
15285;SDS011;7744;52.172;10.668;2023-07-13T15:39:17;5.55;;;1.90;;
15285;SDS011;7744;52.172;10.668;2023-07-13T15:41:44;2.78;;;2.10;;
15285;SDS011;7744;52.172;10.668;2023-07-13T15:44:22;2.88;;;2.13;;
15285;SDS011;7744;52.172;10.668;2023-07-13T15:46:53;3.75;;;1.90;;
15285;SDS011;7744;52.172;10.668;2023-07-13T15:49:19;3.28;;;2.00;;
15285;SDS011;7744;52.172;10.668;2023-07-13T15:51:45;4.85;;;2.00;;
15285;SDS011;7744;52.172;10.668;2023-07-13T15:54:13;3.20;;;2.00;;
15285;SDS011;7744;52.172;10.668;2023-07-13T15:56:40;4.20;;;3.50;;
15285;SDS011;7744;52.172;10.668;2023-07-13T15:59:08;3.00;;;2.50;;
15285;SDS011;7744;52.172;10.668;2023-07-13T16:01:37;2.90;;;2.03;;
15285;SDS011;7744;52.172;10.668;2023-07-13T16:04:05;3.22;;;2.33;;
15285;SDS011;7744;52.172;10.668;2023-07-13T16:06:32;3.28;;;2.33;;
15285;SDS011;7744;52.172;10.668;2023-07-13T16:09:04;2.72;;;2.30;;
15285;SDS011;7744;52.172;10.668;2023-07-13T16:11:37;2.75;;;2.20;;
15285;SDS011;7744;52.172;10.668;2023-07-13T16:14:04;2.92;;;2.00;;
15285;SDS011;7744;52.172;10.668;2023-07-13T16:16:33;2.33;;;2.05;;
15285;SDS011;7744;52.172;10.668;2023-07-13T16:19:02;3.28;;;1.70;;
15285;SDS011;7744;52.172;10.668;2023-07-13T16:21:30;2.67;;;1.67;;
15285;SDS011;7744;52.172;10.668;2023-07-13T16:24:00;4.80;;;1.85;;
15285;SDS011;7744;52.172;10.668;2023-07-13T16:26:34;2.25;;;1.77;;
15285;SDS011;7744;52.172;10.668;2023-07-13T16:32:05;3.42;;;1.83;;
15285;SDS011;7744;52.172;10.668;2023-07-13T16:34:32;2.08;;;1.77;;
15285;SDS011;7744;52.172;10.668;2023-07-13T16:37:01;3.60;;;1.88;;
15285;SDS011;7744;52.172;10.668;2023-07-13T16:39:29;5.93;;;1.67;;
15285;SDS011;7744;52.172;10.668;2023-07-13T16:41:57;2.88;;;1.83;;
15285;SDS011;7744;52.172;10.668;2023-07-13T16:44:24;2.95;;;1.95;;
15285;SDS011;7744;52.172;10.668;2023-07-13T16:46:52;2.65;;;1.90;;
15285;SDS011;7744;52.172;10.668;2023-07-13T16:49:29;1.80;;;1.65;;
15285;SDS011;7744;52.172;10.668;2023-07-13T16:51:57;1.90;;;1.70;;
15285;SDS011;7744;52.172;10.668;2023-07-13T16:54:27;2.08;;;1.80;;
15285;SDS011;7744;52.172;10.668;2023-07-13T16:56:57;2.30;;;1.90;;
15285;SDS011;7744;52.172;10.668;2023-07-13T16:59:24;1.60;;;1.38;;
15285;SDS011;7744;52.172;10.668;2023-07-13T17:01:56;1.95;;;1.20;;
15285;SDS011;7744;52.172;10.668;2023-07-13T17:04:24;2.80;;;1.38;;
15285;SDS011;7744;52.172;10.668;2023-07-13T17:06:52;1.77;;;1.40;;
15285;SDS011;7744;52.172;10.668;2023-07-13T17:09:18;2.88;;;1.55;;
15285;SDS011;7744;52.172;10.668;2023-07-13T17:11:44;1.70;;;1.35;;
15285;SDS011;7744;52.172;10.668;2023-07-13T17:14:17;2.90;;;1.48;;
15285;SDS011;7744;52.172;10.668;2023-07-13T17:16:51;1.70;;;1.60;;
15285;SDS011;7744;52.172;10.668;2023-07-13T17:19:19;1.45;;;1.35;;
15285;SDS011;7744;52.172;10.668;2023-07-13T17:21:52;2.70;;;1.35;;